Terminal Aerodrome Forecast
Issued by NWS North Platte, NE

Home | Current Version | Previous Version | Graphics & Text | Print | Product List | Glossary On
Versions: 1 2 3 4 5 6 7 8 9 10 11 12 13 14
070
FTUS43 KLBF 061544 AAB
TAFVTN
TAF AMD
KVTN 061544Z 0616/0712 24015G23KT P6SM SCT250
     FM061800 21015G23KT P6SM SCT250
     FM062100 18009KT P6SM SCT250
     FM070100 11008KT P6SM BKN250
     FM070600 03012KT P6SM SCT120 BKN250=

USA.gov is the U.S. government's official web portal to all federal, state and local government web resources and services.